sensor_id;sensor_type;location;lat;lon;timestamp;P1;durP1;ratioP1;P2;durP2;ratioP2
46282;SDS011;32017;43.700;11.820;2023-08-24T00:01:01;1.40;;;1.40;;
46282;SDS011;32017;43.700;11.820;2023-08-24T00:03:21;1.77;;;1.77;;
46282;SDS011;32017;43.700;11.820;2023-08-24T00:05:42;2.97;;;1.50;;
46282;SDS011;32017;43.700;11.820;2023-08-24T00:08:11;2.08;;;1.40;;
46282;SDS011;32017;43.700;11.820;2023-08-24T00:10:31;1.88;;;1.75;;
46282;SDS011;32017;43.700;11.820;2023-08-24T00:12:51;2.25;;;2.15;;
46282;SDS011;32017;43.700;11.820;2023-08-24T00:15:11;1.75;;;1.60;;
46282;SDS011;32017;43.700;11.820;2023-08-24T00:17:32;2.40;;;2.30;;
46282;SDS011;32017;43.700;11.820;2023-08-24T00:19:52;2.33;;;1.60;;
46282;SDS011;32017;43.700;11.820;2023-08-24T00:22:12;2.60;;;1.42;;
46282;SDS011;32017;43.700;11.820;2023-08-24T00:24:32;1.50;;;1.50;;
46282;SDS011;32017;43.700;11.820;2023-08-24T00:26:52;1.48;;;1.38;;
46282;SDS011;32017;43.700;11.820;2023-08-24T00:29:12;1.42;;;1.40;;
46282;SDS011;32017;43.700;11.820;2023-08-24T00:31:32;2.40;;;2.25;;
46282;SDS011;32017;43.700;11.820;2023-08-24T00:33:53;1.80;;;1.65;;
46282;SDS011;32017;43.700;11.820;2023-08-24T00:36:13;1.63;;;1.60;;
46282;SDS011;32017;43.700;11.820;2023-08-24T00:38:34;2.13;;;2.13;;
46282;SDS011;32017;43.700;11.820;2023-08-24T00:40:55;2.40;;;2.25;;
46282;SDS011;32017;43.700;11.820;2023-08-24T00:43:15;2.47;;;2.38;;
46282;SDS011;32017;43.700;11.820;2023-08-24T00:45:35;2.42;;;2.17;;
46282;SDS011;32017;43.700;11.820;2023-08-24T00:47:56;2.45;;;2.35;;
46282;SDS011;32017;43.700;11.820;2023-08-24T00:50:16;3.50;;;3.25;;
46282;SDS011;32017;43.700;11.820;2023-08-24T00:52:38;1.95;;;1.85;;
46282;SDS011;32017;43.700;11.820;2023-08-24T00:54:59;2.13;;;2.03;;
46282;SDS011;32017;43.700;11.820;2023-08-24T00:57:19;2.47;;;2.28;;
46282;SDS011;32017;43.700;11.820;2023-08-24T00:59:39;2.25;;;2.15;;
46282;SDS011;32017;43.700;11.820;2023-08-24T01:01:59;1.77;;;1.77;;
46282;SDS011;32017;43.700;11.820;2023-08-24T01:04:20;2.15;;;2.15;;
46282;SDS011;32017;43.700;11.820;2023-08-24T01:06:40;2.40;;;2.38;;
46282;SDS011;32017;43.700;11.820;2023-08-24T01:09:00;7.90;;;1.77;;
46282;SDS011;32017;43.700;11.820;2023-08-24T01:13:55;2.17;;;2.00;;
46282;SDS011;32017;43.700;11.820;2023-08-24T01:16:19;2.28;;;1.90;;
46282;SDS011;32017;43.700;11.820;2023-08-24T01:18:41;2.85;;;2.08;;
46282;SDS011;32017;43.700;11.820;2023-08-24T01:21:02;2.53;;;2.42;;
46282;SDS011;32017;43.700;11.820;2023-08-24T01:25:53;2.13;;;2.13;;
46282;SDS011;32017;43.700;11.820;2023-08-24T01:28:14;2.15;;;2.10;;
46282;SDS011;32017;43.700;11.820;2023-08-24T01:30:34;2.03;;;1.95;;
46282;SDS011;32017;43.700;11.820;2023-08-24T01:32:55;2.55;;;2.45;;
46282;SDS011;32017;43.700;11.820;2023-08-24T01:35:15;2.75;;;2.65;;
46282;SDS011;32017;43.700;11.820;2023-08-24T01:37:36;2.22;;;2.13;;
46282;SDS011;32017;43.700;11.820;2023-08-24T01:40:03;2.75;;;2.65;;
46282;SDS011;32017;43.700;11.820;2023-08-24T01:42:33;2.55;;;2.35;;
46282;SDS011;32017;43.700;11.820;2023-08-24T01:44:56;2.58;;;2.50;;
46282;SDS011;32017;43.700;11.820;2023-08-24T01:47:18;2.40;;;2.30;;
46282;SDS011;32017;43.700;11.820;2023-08-24T01:49:38;2.38;;;2.17;;
46282;SDS011;32017;43.700;11.820;2023-08-24T01:52:01;2.55;;;2.53;;
46282;SDS011;32017;43.700;11.820;2023-08-24T01:54:22;2.80;;;2.75;;
46282;SDS011;32017;43.700;11.820;2023-08-24T01:56:42;2.83;;;2.72;;
46282;SDS011;32017;43.700;11.820;2023-08-24T01:59:03;3.17;;;2.97;;
46282;SDS011;32017;43.700;11.820;2023-08-24T02:01:23;2.95;;;2.85;;
46282;SDS011;32017;43.700;11.820;2023-08-24T02:03:43;2.83;;;2.63;;
46282;SDS011;32017;43.700;11.820;2023-08-24T02:06:03;3.13;;;3.00;;
46282;SDS011;32017;43.700;11.820;2023-08-24T02:08:26;2.38;;;2.30;;
46282;SDS011;32017;43.700;11.820;2023-08-24T02:10:46;2.60;;;2.50;;
46282;SDS011;32017;43.700;11.820;2023-08-24T02:13:06;3.13;;;2.83;;
46282;SDS011;32017;43.700;11.820;2023-08-24T02:15:26;2.42;;;2.28;;
46282;SDS011;32017;43.700;11.820;2023-08-24T02:17:46;2.65;;;2.55;;
46282;SDS011;32017;43.700;11.820;2023-08-24T02:20:07;3.60;;;2.83;;
46282;SDS011;32017;43.700;11.820;2023-08-24T02:22:28;2.33;;;2.22;;
46282;SDS011;32017;43.700;11.820;2023-08-24T02:24:48;2.33;;;2.22;;
46282;SDS011;32017;43.700;11.820;2023-08-24T02:27:09;3.10;;;3.00;;
46282;SDS011;32017;43.700;11.820;2023-08-24T02:29:29;3.40;;;3.20;;
46282;SDS011;32017;43.700;11.820;2023-08-24T02:31:50;2.78;;;2.78;;
46282;SDS011;32017;43.700;11.820;2023-08-24T02:34:11;2.63;;;2.53;;
46282;SDS011;32017;43.700;11.820;2023-08-24T02:36:31;2.70;;;2.70;;
46282;SDS011;32017;43.700;11.820;2023-08-24T02:38:52;3.60;;;3.40;;
46282;SDS011;32017;43.700;11.820;2023-08-24T02:41:12;2.60;;;2.40;;
46282;SDS011;32017;43.700;11.820;2023-08-24T02:43:33;3.30;;;3.20;;
46282;SDS011;32017;43.700;11.820;2023-08-24T02:45:53;3.42;;;3.28;;
46282;SDS011;32017;43.700;11.820;2023-08-24T02:48:14;2.72;;;2.63;;
46282;SDS011;32017;43.700;11.820;2023-08-24T02:50:34;2.30;;;2.25;;
46282;SDS011;32017;43.700;11.820;2023-08-24T02:52:55;3.72;;;3.53;;
46282;SDS011;32017;43.700;11.820;2023-08-24T02:55:17;5.63;;;2.30;;
46282;SDS011;32017;43.700;11.820;2023-08-24T02:57:37;2.88;;;2.67;;
46282;SDS011;32017;43.700;11.820;2023-08-24T02:59:57;2.78;;;2.67;;
46282;SDS011;32017;43.700;11.820;2023-08-24T03:02:18;2.50;;;2.40;;
46282;SDS011;32017;43.700;11.820;2023-08-24T03:04:38;2.28;;;2.17;;
46282;SDS011;32017;43.700;11.820;2023-08-24T03:06:58;2.70;;;2.50;;
46282;SDS011;32017;43.700;11.820;2023-08-24T03:09:18;2.90;;;2.70;;
46282;SDS011;32017;43.700;11.820;2023-08-24T03:11:38;3.63;;;3.42;;
46282;SDS011;32017;43.700;11.820;2023-08-24T03:13:59;4.10;;;2.67;;
46282;SDS011;32017;43.700;11.820;2023-08-24T03:16:19;3.55;;;3.42;;
46282;SDS011;32017;43.700;11.820;2023-08-24T03:18:39;3.83;;;3.65;;
46282;SDS011;32017;43.700;11.820;2023-08-24T03:21:00;2.67;;;2.67;;
46282;SDS011;32017;43.700;11.820;2023-08-24T03:23:20;3.03;;;2.85;;
46282;SDS011;32017;43.700;11.820;2023-08-24T03:25:41;3.28;;;2.28;;
46282;SDS011;32017;43.700;11.820;2023-08-24T03:28:03;2.95;;;2.85;;
46282;SDS011;32017;43.700;11.820;2023-08-24T03:30:23;2.38;;;2.17;;
46282;SDS011;32017;43.700;11.820;2023-08-24T03:32:43;2.50;;;2.33;;
46282;SDS011;32017;43.700;11.820;2023-08-24T03:35:04;2.45;;;2.35;;
46282;SDS011;32017;43.700;11.820;2023-08-24T03:37:25;3.40;;;3.30;;
46282;SDS011;32017;43.700;11.820;2023-08-24T03:39:45;2.65;;;2.40;;
46282;SDS011;32017;43.700;11.820;2023-08-24T03:42:05;2.22;;;2.03;;
46282;SDS011;32017;43.700;11.820;2023-08-24T03:44:26;2.72;;;2.53;;
46282;SDS011;32017;43.700;11.820;2023-08-24T03:46:46;4.72;;;2.28;;
46282;SDS011;32017;43.700;11.820;2023-08-24T03:49:07;3.88;;;2.30;;
46282;SDS011;32017;43.700;11.820;2023-08-24T03:51:27;2.88;;;2.80;;
46282;SDS011;32017;43.700;11.820;2023-08-24T03:53:48;2.85;;;2.75;;
46282;SDS011;32017;43.700;11.820;2023-08-24T03:56:08;2.45;;;2.33;;
46282;SDS011;32017;43.700;11.820;2023-08-24T03:58:28;2.80;;;2.08;;
46282;SDS011;32017;43.700;11.820;2023-08-24T04:00:48;2.92;;;2.72;;
46282;SDS011;32017;43.700;11.820;2023-08-24T04:03:09;3.85;;;3.10;;
46282;SDS011;32017;43.700;11.820;2023-08-24T04:05:30;3.25;;;3.15;;
46282;SDS011;32017;43.700;11.820;2023-08-24T04:07:50;2.70;;;2.55;;
46282;SDS011;32017;43.700;11.820;2023-08-24T04:10:11;2.17;;;2.15;;
46282;SDS011;32017;43.700;11.820;2023-08-24T04:12:31;2.30;;;2.30;;
46282;SDS011;32017;43.700;11.820;2023-08-24T04:14:52;2.85;;;2.75;;
46282;SDS011;32017;43.700;11.820;2023-08-24T04:17:14;2.83;;;2.73;;
46282;SDS011;32017;43.700;11.820;2023-08-24T04:19:35;2.67;;;2.58;;
46282;SDS011;32017;43.700;11.820;2023-08-24T04:21:58;3.95;;;2.63;;
46282;SDS011;32017;43.700;11.820;2023-08-24T04:24:18;3.42;;;3.20;;
46282;SDS011;32017;43.700;11.820;2023-08-24T04:26:38;2.95;;;2.83;;
46282;SDS011;32017;43.700;11.820;2023-08-24T04:28:58;2.97;;;2.78;;
46282;SDS011;32017;43.700;11.820;2023-08-24T04:31:19;3.83;;;2.95;;
46282;SDS011;32017;43.700;11.820;2023-08-24T04:33:39;3.15;;;3.05;;
46282;SDS011;32017;43.700;11.820;2023-08-24T04:35:59;3.95;;;3.58;;
46282;SDS011;32017;43.700;11.820;2023-08-24T04:38:19;3.72;;;3.15;;
46282;SDS011;32017;43.700;11.820;2023-08-24T04:40:58;3.47;;;3.38;;
46282;SDS011;32017;43.700;11.820;2023-08-24T04:43:18;3.30;;;3.20;;
46282;SDS011;32017;43.700;11.820;2023-08-24T04:45:40;2.95;;;2.83;;
46282;SDS011;32017;43.700;11.820;2023-08-24T04:48:00;2.60;;;2.40;;
46282;SDS011;32017;43.700;11.820;2023-08-24T04:50:22;2.45;;;2.25;;
46282;SDS011;32017;43.700;11.820;2023-08-24T04:52:42;2.47;;;2.38;;
46282;SDS011;32017;43.700;11.820;2023-08-24T04:55:02;2.97;;;2.88;;
46282;SDS011;32017;43.700;11.820;2023-08-24T04:57:22;1.58;;;1.55;;
46282;SDS011;32017;43.700;11.820;2023-08-24T04:59:44;1.92;;;1.83;;
46282;SDS011;32017;43.700;11.820;2023-08-24T05:02:05;5.70;;;2.85;;
46282;SDS011;32017;43.700;11.820;2023-08-24T05:04:25;2.67;;;2.58;;
46282;SDS011;32017;43.700;11.820;2023-08-24T05:06:45;3.35;;;3.15;;
46282;SDS011;32017;43.700;11.820;2023-08-24T05:09:05;2.92;;;2.72;;
46282;SDS011;32017;43.700;11.820;2023-08-24T05:11:27;3.60;;;3.20;;
46282;SDS011;32017;43.700;11.820;2023-08-24T05:13:50;3.88;;;3.78;;
46282;SDS011;32017;43.700;11.820;2023-08-24T05:16:11;4.53;;;3.92;;
46282;SDS011;32017;43.700;11.820;2023-08-24T05:18:33;2.80;;;2.70;;
46282;SDS011;32017;43.700;11.820;2023-08-24T05:20:54;3.63;;;3.03;;
46282;SDS011;32017;43.700;11.820;2023-08-24T05:23:14;2.72;;;2.55;;
46282;SDS011;32017;43.700;11.820;2023-08-24T05:25:34;3.55;;;3.45;;
46282;SDS011;32017;43.700;11.820;2023-08-24T05:27:55;2.78;;;2.67;;
46282;SDS011;32017;43.700;11.820;2023-08-24T05:30:15;3.53;;;3.47;;
46282;SDS011;32017;43.700;11.820;2023-08-24T05:32:35;5.22;;;2.88;;
46282;SDS011;32017;43.700;11.820;2023-08-24T05:34:58;3.95;;;3.72;;
46282;SDS011;32017;43.700;11.820;2023-08-24T05:37:18;3.90;;;3.80;;
46282;SDS011;32017;43.700;11.820;2023-08-24T05:39:39;3.70;;;3.40;;
46282;SDS011;32017;43.700;11.820;2023-08-24T05:41:59;2.95;;;2.83;;
46282;SDS011;32017;43.700;11.820;2023-08-24T05:44:19;2.88;;;2.72;;
46282;SDS011;32017;43.700;11.820;2023-08-24T05:46:40;2.30;;;2.30;;
46282;SDS011;32017;43.700;11.820;2023-08-24T05:49:01;2.53;;;2.33;;
46282;SDS011;32017;43.700;11.820;2023-08-24T05:51:21;2.53;;;2.33;;
46282;SDS011;32017;43.700;11.820;2023-08-24T05:53:41;3.70;;;2.80;;
46282;SDS011;32017;43.700;11.820;2023-08-24T05:56:01;2.97;;;2.80;;
46282;SDS011;32017;43.700;11.820;2023-08-24T05:58:21;3.78;;;3.60;;
46282;SDS011;32017;43.700;11.820;2023-08-24T06:00:42;3.42;;;3.28;;
46282;SDS011;32017;43.700;11.820;2023-08-24T06:03:02;1.73;;;1.67;;
46282;SDS011;32017;43.700;11.820;2023-08-24T06:05:23;3.08;;;2.17;;
46282;SDS011;32017;43.700;11.820;2023-08-24T06:07:43;2.75;;;1.50;;
46282;SDS011;32017;43.700;11.820;2023-08-24T06:10:04;1.50;;;1.27;;
46282;SDS011;32017;43.700;11.820;2023-08-24T06:12:25;1.60;;;1.45;;
46282;SDS011;32017;43.700;11.820;2023-08-24T06:14:46;3.03;;;1.33;;
46282;SDS011;32017;43.700;11.820;2023-08-24T06:17:06;1.50;;;1.40;;
46282;SDS011;32017;43.700;11.820;2023-08-24T06:19:26;1.00;;;1.00;;
46282;SDS011;32017;43.700;11.820;2023-08-24T06:21:47;1.30;;;1.30;;
46282;SDS011;32017;43.700;11.820;2023-08-24T06:24:07;1.35;;;1.10;;
46282;SDS011;32017;43.700;11.820;2023-08-24T06:26:28;1.40;;;1.30;;
46282;SDS011;32017;43.700;11.820;2023-08-24T06:28:48;1.83;;;1.00;;
46282;SDS011;32017;43.700;11.820;2023-08-24T06:31:08;1.95;;;1.10;;
46282;SDS011;32017;43.700;11.820;2023-08-24T06:33:29;2.85;;;0.90;;
46282;SDS011;32017;43.700;11.820;2023-08-24T06:35:49;2.60;;;1.23;;
46282;SDS011;32017;43.700;11.820;2023-08-24T06:38:09;1.00;;;1.00;;
46282;SDS011;32017;43.700;11.820;2023-08-24T06:40:29;3.17;;;1.00;;
46282;SDS011;32017;43.700;11.820;2023-08-24T06:42:50;0.93;;;0.93;;
46282;SDS011;32017;43.700;11.820;2023-08-24T06:45:10;0.90;;;0.90;;
46282;SDS011;32017;43.700;11.820;2023-08-24T06:47:30;0.90;;;0.90;;
46282;SDS011;32017;43.700;11.820;2023-08-24T06:49:51;1.70;;;0.90;;
46282;SDS011;32017;43.700;11.820;2023-08-24T06:52:11;1.00;;;1.00;;
46282;SDS011;32017;43.700;11.820;2023-08-24T06:54:31;1.02;;;0.98;;
46282;SDS011;32017;43.700;11.820;2023-08-24T06:56:51;1.05;;;0.95;;
46282;SDS011;32017;43.700;11.820;2023-08-24T06:59:11;1.48;;;1.35;;
46282;SDS011;32017;43.700;11.820;2023-08-24T07:01:32;0.85;;;0.85;;
46282;SDS011;32017;43.700;11.820;2023-08-24T07:03:53;1.00;;;0.90;;
46282;SDS011;32017;43.700;11.820;2023-08-24T07:06:13;3.65;;;1.00;;
46282;SDS011;32017;43.700;11.820;2023-08-24T07:08:34;2.67;;;1.00;;
46282;SDS011;32017;43.700;11.820;2023-08-24T07:10:57;0.90;;;0.90;;
46282;SDS011;32017;43.700;11.820;2023-08-24T07:13:17;2.53;;;1.00;;
46282;SDS011;32017;43.700;11.820;2023-08-24T07:15:38;1.08;;;0.98;;
46282;SDS011;32017;43.700;11.820;2023-08-24T07:17:58;2.33;;;0.90;;
46282;SDS011;32017;43.700;11.820;2023-08-24T07:20:18;1.10;;;1.10;;
46282;SDS011;32017;43.700;11.820;2023-08-24T07:22:39;1.15;;;0.90;;
46282;SDS011;32017;43.700;11.820;2023-08-24T07:25:00;2.60;;;1.00;;
46282;SDS011;32017;43.700;11.820;2023-08-24T07:27:23;1.00;;;0.80;;
46282;SDS011;32017;43.700;11.820;2023-08-24T07:29:43;1.75;;;0.80;;
46282;SDS011;32017;43.700;11.820;2023-08-24T07:32:04;1.90;;;0.90;;
46282;SDS011;32017;43.700;11.820;2023-08-24T07:34:24;3.47;;;0.80;;
46282;SDS011;32017;43.700;11.820;2023-08-24T07:36:44;1.27;;;0.90;;
46282;SDS011;32017;43.700;11.820;2023-08-24T07:39:07;0.88;;;0.80;;
46282;SDS011;32017;43.700;11.820;2023-08-24T07:41:28;1.85;;;0.73;;
46282;SDS011;32017;43.700;11.820;2023-08-24T07:43:48;2.63;;;0.70;;
46282;SDS011;32017;43.700;11.820;2023-08-24T07:46:08;0.60;;;0.60;;
46282;SDS011;32017;43.700;11.820;2023-08-24T07:48:29;0.60;;;0.60;;
46282;SDS011;32017;43.700;11.820;2023-08-24T07:50:49;0.70;;;0.70;;
46282;SDS011;32017;43.700;11.820;2023-08-24T07:53:10;0.75;;;0.68;;
46282;SDS011;32017;43.700;11.820;2023-08-24T07:55:31;1.50;;;0.70;;
46282;SDS011;32017;43.700;11.820;2023-08-24T07:57:51;0.70;;;0.70;;
46282;SDS011;32017;43.700;11.820;2023-08-24T08:00:11;0.68;;;0.68;;
46282;SDS011;32017;43.700;11.820;2023-08-24T08:02:33;0.60;;;0.60;;
46282;SDS011;32017;43.700;11.820;2023-08-24T08:04:57;0.70;;;0.70;;
46282;SDS011;32017;43.700;11.820;2023-08-24T08:07:17;0.60;;;0.60;;
46282;SDS011;32017;43.700;11.820;2023-08-24T08:09:38;0.52;;;0.50;;
46282;SDS011;32017;43.700;11.820;2023-08-24T08:11:58;1.65;;;0.80;;
46282;SDS011;32017;43.700;11.820;2023-08-24T08:14:18;2.53;;;0.68;;
46282;SDS011;32017;43.700;11.820;2023-08-24T08:16:39;2.13;;;0.60;;
46282;SDS011;32017;43.700;11.820;2023-08-24T08:18:59;0.60;;;0.60;;
46282;SDS011;32017;43.700;11.820;2023-08-24T08:21:19;2.55;;;0.80;;
46282;SDS011;32017;43.700;11.820;2023-08-24T08:23:42;0.90;;;0.60;;
46282;SDS011;32017;43.700;11.820;2023-08-24T08:26:02;1.65;;;0.57;;
46282;SDS011;32017;43.700;11.820;2023-08-24T08:28:22;1.95;;;0.73;;
46282;SDS011;32017;43.700;11.820;2023-08-24T08:30:42;1.77;;;0.60;;
46282;SDS011;32017;43.700;11.820;2023-08-24T08:33:02;0.60;;;0.60;;
46282;SDS011;32017;43.700;11.820;2023-08-24T08:35:23;1.95;;;0.60;;
46282;SDS011;32017;43.700;11.820;2023-08-24T08:37:43;0.85;;;0.60;;
46282;SDS011;32017;43.700;11.820;2023-08-24T08:40:03;1.55;;;0.50;;
46282;SDS011;32017;43.700;11.820;2023-08-24T08:42:30;0.50;;;0.50;;
46282;SDS011;32017;43.700;11.820;2023-08-24T08:44:50;1.42;;;0.60;;
46282;SDS011;32017;43.700;11.820;2023-08-24T08:47:13;4.95;;;0.80;;
46282;SDS011;32017;43.700;11.820;2023-08-24T08:49:34;2.63;;;0.60;;
46282;SDS011;32017;43.700;11.820;2023-08-24T08:51:56;0.90;;;0.70;;
46282;SDS011;32017;43.700;11.820;2023-08-24T08:54:16;0.93;;;0.65;;
46282;SDS011;32017;43.700;11.820;2023-08-24T08:56:36;0.65;;;0.65;;
46282;SDS011;32017;43.700;11.820;2023-08-24T08:58:56;0.63;;;0.50;;
46282;SDS011;32017;43.700;11.820;2023-08-24T09:01:19;0.50;;;0.50;;
46282;SDS011;32017;43.700;11.820;2023-08-24T09:03:40;1.17;;;0.50;;
46282;SDS011;32017;43.700;11.820;2023-08-24T09:06:01;0.83;;;0.60;;
46282;SDS011;32017;43.700;11.820;2023-08-24T09:08:22;0.93;;;0.52;;
46282;SDS011;32017;43.700;11.820;2023-08-24T09:10:42;1.15;;;0.60;;
46282;SDS011;32017;43.700;11.820;2023-08-24T09:13:03;1.15;;;0.50;;
46282;SDS011;32017;43.700;11.820;2023-08-24T09:15:24;1.58;;;0.50;;
46282;SDS011;32017;43.700;11.820;2023-08-24T09:17:45;0.50;;;0.50;;
46282;SDS011;32017;43.700;11.820;2023-08-24T09:20:09;3.00;;;0.50;;
46282;SDS011;32017;43.700;11.820;2023-08-24T09:22:34;0.60;;;0.57;;
46282;SDS011;32017;43.700;11.820;2023-08-24T09:24:55;2.20;;;0.50;;
46282;SDS011;32017;43.700;11.820;2023-08-24T09:27:23;0.55;;;0.55;;
46282;SDS011;32017;43.700;11.820;2023-08-24T09:29:47;1.55;;;0.60;;
46282;SDS011;32017;43.700;11.820;2023-08-24T09:32:08;0.60;;;0.60;;
46282;SDS011;32017;43.700;11.820;2023-08-24T09:34:28;2.25;;;0.50;;
46282;SDS011;32017;43.700;11.820;2023-08-24T09:36:50;0.60;;;0.60;;
46282;SDS011;32017;43.700;11.820;2023-08-24T09:39:10;1.58;;;0.70;;
46282;SDS011;32017;43.700;11.820;2023-08-24T09:41:37;2.60;;;0.65;;
46282;SDS011;32017;43.700;11.820;2023-08-24T09:44:03;2.38;;;0.60;;
46282;SDS011;32017;43.700;11.820;2023-08-24T09:46:23;0.70;;;0.70;;
46282;SDS011;32017;43.700;11.820;2023-08-24T09:48:44;3.83;;;0.70;;
46282;SDS011;32017;43.700;11.820;2023-08-24T09:51:04;2.33;;;0.80;;
46282;SDS011;32017;43.700;11.820;2023-08-24T09:53:25;0.80;;;0.80;;
46282;SDS011;32017;43.700;11.820;2023-08-24T09:55:54;0.80;;;0.80;;
46282;SDS011;32017;43.700;11.820;2023-08-24T09:58:14;0.70;;;0.70;;
46282;SDS011;32017;43.700;11.820;2023-08-24T10:00:35;0.85;;;0.70;;
46282;SDS011;32017;43.700;11.820;2023-08-24T10:02:56;0.70;;;0.70;;
46282;SDS011;32017;43.700;11.820;2023-08-24T10:05:19;0.80;;;0.80;;
46282;SDS011;32017;43.700;11.820;2023-08-24T10:07:58;1.33;;;0.70;;
46282;SDS011;32017;43.700;11.820;2023-08-24T10:10:18;0.90;;;0.90;;
46282;SDS011;32017;43.700;11.820;2023-08-24T10:12:41;1.57;;;0.70;;
46282;SDS011;32017;43.700;11.820;2023-08-24T10:15:04;0.70;;;0.70;;
46282;SDS011;32017;43.700;11.820;2023-08-24T10:17:26;0.80;;;0.80;;
46282;SDS011;32017;43.700;11.820;2023-08-24T10:19:46;0.80;;;0.80;;
46282;SDS011;32017;43.700;11.820;2023-08-24T10:22:07;0.70;;;0.70;;
46282;SDS011;32017;43.700;11.820;2023-08-24T10:24:28;0.63;;;0.63;;
46282;SDS011;32017;43.700;11.820;2023-08-24T10:26:49;0.77;;;0.77;;
46282;SDS011;32017;43.700;11.820;2023-08-24T10:29:10;0.70;;;0.70;;
46282;SDS011;32017;43.700;11.820;2023-08-24T10:31:30;0.77;;;0.70;;
46282;SDS011;32017;43.700;11.820;2023-08-24T10:33:51;0.70;;;0.70;;
46282;SDS011;32017;43.700;11.820;2023-08-24T10:36:12;0.70;;;0.70;;
46282;SDS011;32017;43.700;11.820;2023-08-24T10:38:34;0.70;;;0.70;;
46282;SDS011;32017;43.700;11.820;2023-08-24T10:41:01;0.70;;;0.70;;
46282;SDS011;32017;43.700;11.820;2023-08-24T10:43:24;1.67;;;0.70;;
46282;SDS011;32017;43.700;11.820;2023-08-24T10:45:58;1.10;;;0.60;;
46282;SDS011;32017;43.700;11.820;2023-08-24T10:48:18;0.73;;;0.70;;
46282;SDS011;32017;43.700;11.820;2023-08-24T10:50:39;2.25;;;0.70;;
46282;SDS011;32017;43.700;11.820;2023-08-24T10:52:59;0.70;;;0.70;;
46282;SDS011;32017;43.700;11.820;2023-08-24T10:55:23;0.70;;;0.70;;
46282;SDS011;32017;43.700;11.820;2023-08-24T10:57:44;1.73;;;0.70;;
46282;SDS011;32017;43.700;11.820;2023-08-24T11:00:10;1.35;;;0.68;;
46282;SDS011;32017;43.700;11.820;2023-08-24T11:02:52;0.60;;;0.60;;
46282;SDS011;32017;43.700;11.820;2023-08-24T11:07:33;1.85;;;0.70;;
46282;SDS011;32017;43.700;11.820;2023-08-24T11:09:54;0.75;;;0.60;;
46282;SDS011;32017;43.700;11.820;2023-08-24T11:12:14;0.85;;;0.68;;
46282;SDS011;32017;43.700;11.820;2023-08-24T11:14:34;0.70;;;0.70;;
46282;SDS011;32017;43.700;11.820;2023-08-24T11:17:17;1.48;;;0.60;;
46282;SDS011;32017;43.700;11.820;2023-08-24T11:19:38;0.70;;;0.70;;
46282;SDS011;32017;43.700;11.820;2023-08-24T11:21:58;1.58;;;0.70;;
46282;SDS011;32017;43.700;11.820;2023-08-24T11:24:19;0.70;;;0.70;;
46282;SDS011;32017;43.700;11.820;2023-08-24T11:26:42;0.60;;;0.60;;
46282;SDS011;32017;43.700;11.820;2023-08-24T11:29:06;0.60;;;0.60;;
46282;SDS011;32017;43.700;11.820;2023-08-24T11:31:26;3.83;;;0.70;;
46282;SDS011;32017;43.700;11.820;2023-08-24T11:33:47;0.70;;;0.70;;
46282;SDS011;32017;43.700;11.820;2023-08-24T11:36:08;1.77;;;0.70;;
46282;SDS011;32017;43.700;11.820;2023-08-24T11:38:38;0.70;;;0.70;;
46282;SDS011;32017;43.700;11.820;2023-08-24T11:40:58;0.70;;;0.70;;
46282;SDS011;32017;43.700;11.820;2023-08-24T11:43:25;2.38;;;0.60;;
46282;SDS011;32017;43.700;11.820;2023-08-24T11:45:48;0.70;;;0.70;;
46282;SDS011;32017;43.700;11.820;2023-08-24T11:48:09;0.73;;;0.65;;
46282;SDS011;32017;43.700;11.820;2023-08-24T11:50:29;0.95;;;0.60;;
46282;SDS011;32017;43.700;11.820;2023-08-24T11:52:49;2.85;;;0.60;;
46282;SDS011;32017;43.700;11.820;2023-08-24T11:55:10;0.60;;;0.60;;
46282;SDS011;32017;43.700;11.820;2023-08-24T11:57:33;2.43;;;0.70;;
46282;SDS011;32017;43.700;11.820;2023-08-24T11:59:54;2.20;;;0.70;;
46282;SDS011;32017;43.700;11.820;2023-08-24T12:02:15;0.70;;;0.70;;
46282;SDS011;32017;43.700;11.820;2023-08-24T12:04:40;1.65;;;0.60;;
46282;SDS011;32017;43.700;11.820;2023-08-24T12:07:07;3.95;;;0.60;;
46282;SDS011;32017;43.700;11.820;2023-08-24T12:09:29;0.70;;;0.70;;
46282;SDS011;32017;43.700;11.820;2023-08-24T12:11:49;0.68;;;0.60;;
46282;SDS011;32017;43.700;11.820;2023-08-24T12:14:17;0.68;;;0.68;;
46282;SDS011;32017;43.700;11.820;2023-08-24T12:16:37;0.60;;;0.60;;
46282;SDS011;32017;43.700;11.820;2023-08-24T12:18:58;1.10;;;0.80;;
46282;SDS011;32017;43.700;11.820;2023-08-24T12:21:20;0.60;;;0.60;;
46282;SDS011;32017;43.700;11.820;2023-08-24T12:23:40;3.40;;;0.63;;
46282;SDS011;32017;43.700;11.820;2023-08-24T12:26:01;0.70;;;0.70;;
46282;SDS011;32017;43.700;11.820;2023-08-24T12:28:21;2.38;;;0.70;;
46282;SDS011;32017;43.700;11.820;2023-08-24T12:30:51;1.48;;;0.70;;
46282;SDS011;32017;43.700;11.820;2023-08-24T12:33:24;0.55;;;0.55;;
46282;SDS011;32017;43.700;11.820;2023-08-24T12:35:45;0.60;;;0.60;;
46282;SDS011;32017;43.700;11.820;2023-08-24T12:38:05;1.33;;;0.60;;
46282;SDS011;32017;43.700;11.820;2023-08-24T12:40:26;0.87;;;0.67;;
46282;SDS011;32017;43.700;11.820;2023-08-24T12:42:46;1.63;;;0.98;;
46282;SDS011;32017;43.700;11.820;2023-08-24T12:45:06;0.63;;;0.60;;
46282;SDS011;32017;43.700;11.820;2023-08-24T12:47:27;0.70;;;0.70;;
46282;SDS011;32017;43.700;11.820;2023-08-24T12:49:47;1.48;;;0.70;;
46282;SDS011;32017;43.700;11.820;2023-08-24T12:52:07;2.03;;;0.60;;
46282;SDS011;32017;43.700;11.820;2023-08-24T12:54:28;1.30;;;0.60;;
46282;SDS011;32017;43.700;11.820;2023-08-24T12:56:48;1.13;;;0.80;;
46282;SDS011;32017;43.700;11.820;2023-08-24T12:59:08;1.23;;;0.65;;
46282;SDS011;32017;43.700;11.820;2023-08-24T13:01:29;0.70;;;0.70;;
46282;SDS011;32017;43.700;11.820;2023-08-24T13:03:49;0.70;;;0.70;;
46282;SDS011;32017;43.700;11.820;2023-08-24T13:06:09;0.60;;;0.60;;
46282;SDS011;32017;43.700;11.820;2023-08-24T13:08:43;0.60;;;0.60;;
46282;SDS011;32017;43.700;11.820;2023-08-24T13:11:04;0.65;;;0.65;;
46282;SDS011;32017;43.700;11.820;2023-08-24T13:13:24;1.05;;;0.90;;
46282;SDS011;32017;43.700;11.820;2023-08-24T13:15:44;0.70;;;0.70;;
46282;SDS011;32017;43.700;11.820;2023-08-24T13:18:05;0.70;;;0.70;;
46282;SDS011;32017;43.700;11.820;2023-08-24T13:20:26;0.60;;;0.60;;
46282;SDS011;32017;43.700;11.820;2023-08-24T13:22:46;0.93;;;0.60;;
46282;SDS011;32017;43.700;11.820;2023-08-24T13:25:06;0.88;;;0.60;;
46282;SDS011;32017;43.700;11.820;2023-08-24T13:27:27;0.60;;;0.60;;
46282;SDS011;32017;43.700;11.820;2023-08-24T13:29:47;2.50;;;0.60;;
46282;SDS011;32017;43.700;11.820;2023-08-24T13:32:07;1.17;;;0.52;;
46282;SDS011;32017;43.700;11.820;2023-08-24T13:34:28;2.05;;;0.60;;
46282;SDS011;32017;43.700;11.820;2023-08-24T13:36:48;0.60;;;0.60;;
46282;SDS011;32017;43.700;11.820;2023-08-24T13:39:08;0.60;;;0.60;;
46282;SDS011;32017;43.700;11.820;2023-08-24T13:41:29;2.58;;;0.63;;
46282;SDS011;32017;43.700;11.820;2023-08-24T13:43:50;0.60;;;0.60;;
46282;SDS011;32017;43.700;11.820;2023-08-24T13:46:10;1.48;;;0.60;;
46282;SDS011;32017;43.700;11.820;2023-08-24T13:48:31;0.60;;;0.60;;
46282;SDS011;32017;43.700;11.820;2023-08-24T13:50:53;0.60;;;0.60;;
46282;SDS011;32017;43.700;11.820;2023-08-24T13:53:15;0.68;;;0.63;;
46282;SDS011;32017;43.700;11.820;2023-08-24T13:55:35;1.95;;;0.70;;
46282;SDS011;32017;43.700;11.820;2023-08-24T13:57:57;1.15;;;0.98;;
46282;SDS011;32017;43.700;11.820;2023-08-24T14:00:18;1.95;;;0.70;;
46282;SDS011;32017;43.700;11.820;2023-08-24T14:02:38;0.70;;;0.70;;
46282;SDS011;32017;43.700;11.820;2023-08-24T14:04:58;3.83;;;0.80;;